Kyokuhoumaru No.12 — JL5963 — position and weather

sailwx.info

Track history (hours):
 
Tides and Currents Weather Stations Pressure Air Temp Water Temp Dewpoint Dewpoint Depression Visibility Wind Speed Wind Dir Waves Ship Positions

Kyokuhoumaru No.12

Last reported at 2015-Jan-26 06:30 UTC. Time now 2015-Jan-28 04:18 UTC.
Position N 35°05' E 139°37'.

Length 57 m.

Type: Tanker. MMSI: 431500879.

Date/timePositionNaut miles runAvg speedWind from/ knotsBaromVisibWave heightAir tempDewpointWater temp
2015-Jan-26 06:30N 35°05' E 139°37'9 9.0
2015-Jan-26 05:33N 35°11' E 139°45'9 9.3
2015-Jan-26 04:32N 35°20' E 139°42'6 0.5
2015-Jan-25 16:09N 35°25' E 139°47'6 9.0
2015-Jan-25 15:32N 35°20' E 139°44'8 8.5
2015-Jan-25 14:33N 35°12' E 139°47'9 9.0
2015-Jan-25 13:33N 35°04' E 139°42'10 9.7
2015-Jan-25 12:32N 34°57' E 139°33'  
2015-Jan-20 06:33N 35°08' E 139°43'9 8.9
2015-Jan-20 05:31N 35°17' E 139°44'10 8.1
2015-Jan-20 04:18N 35°27' E 139°47'3 0.3
2015-Jan-19 17:15N 35°23' E 139°46'9 9.2
2015-Jan-19 16:17N 35°15' E 139°47'7 9.6
2015-Jan-19 15:31N 35°07' E 139°46'9 8.7
2015-Jan-19 14:32N 35°01' E 139°39'  
Track history (hours):
 
Tides and Currents Weather Stations Pressure Air Temp Water Temp Dewpoint Dewpoint Depression Visibility Wind Speed Wind Dir Waves Ship Positions

Kyokuhoumaru No.12

Last reported at 2015-Jan-26 06:30 UTC. Time now 2015-Jan-28 04:18 UTC.
Position N 35°05' E 139°37'.

Length 57 m.

Type: Tanker. MMSI: 431500879.

Date/timePositionNaut miles runAvg speedWind from/ knotsBaromVisibWave heightAir tempDewpointWater temp
2015-Jan-26 06:30N 35°05' E 139°37'9 9.0
2015-Jan-26 05:33N 35°11' E 139°45'9 9.3
2015-Jan-26 04:32N 35°20' E 139°42'6 0.5
2015-Jan-25 16:09N 35°25' E 139°47'6 9.0
2015-Jan-25 15:32N 35°20' E 139°44'8 8.5
2015-Jan-25 14:33N 35°12' E 139°47'9 9.0
2015-Jan-25 13:33N 35°04' E 139°42'10 9.7
2015-Jan-25 12:32N 34°57' E 139°33'  
2015-Jan-20 06:33N 35°08' E 139°43'9 8.9
2015-Jan-20 05:31N 35°17' E 139°44'10 8.1
2015-Jan-20 04:18N 35°27' E 139°47'3 0.3
2015-Jan-19 17:15N 35°23' E 139°46'9 9.2
2015-Jan-19 16:17N 35°15' E 139°47'7 9.6
2015-Jan-19 15:31N 35°07' E 139°46'9 8.7
2015-Jan-19 14:32N 35°01' E 139°39'  

Dump ship's entire track history